Lucas, Mississippi
Current Conditions -  °F | °C
As of 1:15 PM on Sunday 23 Nov 2014 (Local Time) from K1R7 Reporting Station
Broken Clouds Broken Clouds  
Wind Chill: 66°   Ceiling: 2800
Heat Index: 66°   Visibility: 10mi
Dew Point: 59°   Wind: 16mph
Humidity: 78%   Direction: 200°SSW
Pressure: 29.57"   Gusts: 24mph
Location:  31.5969°N, 89.8752°W
Report Text: K1R7 231915Z AUTO 20014G21KT 10SM SCT022 BKN028 19/15 A2957 RMK AO2
Loading
Personal Weather Stations






























Interactive Weather Map New forecast layout! Learn more

10-Day Weather Forecast

Advertisements
Track Severe Weather on mobile